Weather reports worldwide

Advertisment
Great Dun Fell, United Kingdom (3227): temperature & dewpoint: 09.01.2021 17:00:00 - 15.01.2021 17:00:00 (GMT)Great Dun Fell, United Kingdom (3227): wind speed & gusts: 09.01.2021 17:00:00 - 15.01.2021 17:00:00 (GMT)Great Dun Fell, United Kingdom (3227): wind direction: 09.01.2021 17:00:00 - 15.01.2021 17:00:00 (GMT)
Date & Time tt [°C] td [°C] ff [km/h] ff [kn] fx [km/h] fx [kn] dd
15.01.2021 17:00:00 -4,8 -4,9 21 11 - - SW
15.01.2021 16:00:00 -4,5 -4,5 21 11 - - SW
15.01.2021 15:00:00 -4,5 -4,5 18 10 - - SW
15.01.2021 14:00:00 -4,1 -4,1 16 9 - - WSW
15.01.2021 13:00:00 -4,0 -4,0 15 8 - - SW
15.01.2021 12:00:00 -3,7 -3,7 15 8 - - SW
15.01.2021 11:00:00 -3,6 -3,6 11 6 - - WSW
15.01.2021 10:00:00 -3,4 -3,4 9 5 - - WSW
15.01.2021 09:00:00 -3,2 -3,2 8 4 - - WSW
15.01.2021 08:00:00 -3,0 -3,0 5 3 - - WSW
15.01.2021 07:00:00 -3,0 -3,0 4 2 - - WNW
15.01.2021 06:00:00 -3,5 -3,5 9 5 - - W
15.01.2021 05:00:00 -3,2 -3,2 13 7 - - W
15.01.2021 04:00:00 -3,2 -3,2 13 7 - - W
15.01.2021 03:00:00 -2,9 -2,9 5 3 - - WNW
15.01.2021 02:00:00 -2,9 -2,9 5 3 - - WSW
15.01.2021 01:00:00 -2,9 -2,9 8 4 - - SSW
15.01.2021 00:00:00 -2,9 -2,9 9 5 - - S
14.01.2021 23:00:00 -2,9 -2,9 11 6 - - SE
14.01.2021 22:00:00 -2,9 -2,9 18 10 - - ESE
14.01.2021 21:00:00 -3,1 -3,1 21 11 - - ESE
14.01.2021 20:00:00 -2,9 -2,9 18 10 - - ESE
14.01.2021 19:00:00 -3,0 -3,0 21 11 - - ESE
14.01.2021 18:00:00 -2,9 -2,9 24 13 - - ESE
14.01.2021 17:00:00 -3,0 -3,0 26 14 - - ESE
14.01.2021 16:00:00 -3,1 -3,1 24 13 - - E
14.01.2021 15:00:00 -3,1 -3,1 39 21 48 26 ESE
14.01.2021 14:00:00 -3,1 -3,1 37 20 57 31 E
14.01.2021 13:00:00 -2,7 -2,7 41 22 52 28 ESE
14.01.2021 12:00:00 -3,0 -3,0 41 22 50 27 ESE
14.01.2021 11:00:00 -2,9 -2,9 41 22 59 32 ESE
14.01.2021 10:00:00 -2,8 -2,8 44 24 57 31 ESE
14.01.2021 09:00:00 -2,6 -2,6 48 26 61 33 ESE
14.01.2021 08:00:00 -2,7 -2,7 46 25 61 33 ESE
14.01.2021 07:00:00 -2,7 -2,7 41 22 54 29 ESE
14.01.2021 06:00:00 -2,8 -2,8 41 22 59 32 ESE
14.01.2021 05:00:00 -2,2 -2,2 34 18 48 26 ESE
14.01.2021 04:00:00 -1,8 -1,8 31 17 - - ESE
14.01.2021 03:00:00 -1,6 -1,6 24 13 - - ESE
14.01.2021 02:00:00 -1,5 -1,5 26 14 - - ESE
14.01.2021 01:00:00 -1,5 -1,5 24 13 - - ESE
14.01.2021 00:00:00 -1,3 -1,3 28 15 - - ESE
13.01.2021 23:00:00 -1,2 -1,2 28 15 - - ESE
13.01.2021 22:00:00 -1,9 -1,9 31 17 - - ESE
13.01.2021 21:00:00 -2,4 -3,1 29 16 - - ESE
13.01.2021 20:00:00 -2,4 -2,4 24 13 - - E
13.01.2021 19:00:00 -2,6 -2,6 13 7 - - E
13.01.2021 18:00:00 1,5 1,5 13 7 - - S
13.01.2021 17:00:00 1,9 1,9 8 4 - - S
13.01.2021 16:00:00 2,1 2,1 4 2 - - S
13.01.2021 15:00:00 1,4 1,4 5 3 - - NNE
13.01.2021 14:00:00 1,2 1,2 8 4 - - NE
13.01.2021 13:00:00 1,7 1,7 8 4 - - NNE
13.01.2021 12:00:00 1,5 1,5 9 5 - - N
13.01.2021 11:00:00 2,0 2,0 9 5 - - NNW
13.01.2021 10:00:00 -0,7 -0,7 11 6 - - NE
13.01.2021 09:00:00 0,3 0,3 11 6 - - NNE
13.01.2021 08:00:00 1,2 1,2 13 7 - - N
13.01.2021 07:00:00 -1,8 -1,8 11 6 - - WNW
13.01.2021 06:00:00 -1,4 -1,4 24 13 - - WNW
13.01.2021 05:00:00 -2,1 -2,1 22 12 - - W
13.01.2021 04:00:00 -2,6 -2,6 26 14 - - W
13.01.2021 03:00:00 -3,1 -3,1 24 13 - - W
13.01.2021 02:00:00 -3,4 -3,4 29 16 - - W
13.01.2021 01:00:00 -3,5 -3,5 26 14 - - W
13.01.2021 00:00:00 -3,6 -3,6 26 14 - - W
12.01.2021 23:00:00 -3,5 -3,5 24 13 - - W
12.01.2021 22:00:00 -3,4 -3,4 24 13 - - W
12.01.2021 21:00:00 -4,1 -4,1 22 12 - - W
12.01.2021 20:00:00 -4,0 -4,0 16 9 - - W
12.01.2021 19:00:00 -4,0 -4,0 16 9 - - WNW
12.01.2021 18:00:00 -2,8 -2,8 13 7 - - WNW
12.01.2021 17:00:00 -2,4 -2,4 16 9 - - NNW
12.01.2021 16:00:00 -3,0 -3,0 18 10 - - N
12.01.2021 15:00:00 -3,3 -3,3 16 9 - - N
12.01.2021 14:00:00 -3,8 -3,8 11 6 - - NNE
12.01.2021 13:00:00 -4,1 -4,1 21 11 - - NE
12.01.2021 12:00:00 -4,2 -4,2 18 10 - - NNE
12.01.2021 11:00:00 -4,1 -4,1 28 15 - - NNE
12.01.2021 10:00:00 -4,2 -4,2 26 14 - - N
12.01.2021 09:00:00 -4,1 -4,1 34 18 46 25 NNE
12.01.2021 08:00:00 -3,8 -3,8 28 15 - - NNE
12.01.2021 07:00:00 -4,4 -4,4 29 16 48 26 NNE
12.01.2021 06:00:00 -4,4 -4,5 22 12 - - NNE
12.01.2021 05:00:00 -4,5 -4,5 18 10 - - NE
12.01.2021 04:00:00 -3,8 -3,8 18 10 - - NE
12.01.2021 03:00:00 -3,5 -3,5 22 12 - - NE
12.01.2021 02:00:00 -2,9 -2,9 26 14 - - NE
12.01.2021 01:00:00 -2,6 -2,6 24 13 - - NE
12.01.2021 00:00:00 0,8 0,8 44 24 74 40 NW
11.01.2021 23:00:00 1,8 1,8 55 30 76 41 W
11.01.2021 22:00:00 2,3 2,3 55 30 78 42 W
11.01.2021 21:00:00 2,4 2,4 61 33 81 44 W
11.01.2021 20:00:00 2,4 2,4 68 37 87 47 W
11.01.2021 19:00:00 2,3 2,3 67 36 89 48 W
11.01.2021 18:00:00 2,9 2,9 81 44 106 57 W
11.01.2021 17:00:00 3,2 3,2 81 44 102 55 W
11.01.2021 16:00:00 3,0 3,0 76 41 100 54 W
11.01.2021 15:00:00 3,5 3,5 72 39 96 52 W
11.01.2021 14:00:00 3,5 3,5 67 36 87 47 W
11.01.2021 13:00:00 3,1 3,1 76 41 104 56 W
11.01.2021 12:00:00 2,8 2,8 87 47 106 57 W
11.01.2021 11:00:00 1,9 1,9 68 37 81 44 WSW
11.01.2021 10:00:00 1,4 1,4 68 37 83 45 WSW
11.01.2021 09:00:00 1,0 1,0 72 39 87 47 WSW
11.01.2021 08:00:00 1,0 1,0 68 37 80 43 W
11.01.2021 07:00:00 0,9 0,9 63 34 80 43 W
11.01.2021 06:00:00 0,9 0,9 72 39 89 48 W
11.01.2021 05:00:00 0,8 0,8 72 39 80 43 WSW
11.01.2021 04:00:00 0,6 0,6 63 34 78 42 WSW
11.01.2021 03:00:00 0,4 0,4 70 38 81 44 WSW
11.01.2021 02:00:00 0,0 0,0 70 38 81 44 WSW
11.01.2021 01:00:00 -0,1 -0,1 68 37 83 45 W
11.01.2021 00:00:00 0,2 0,2 78 42 89 48 W
10.01.2021 23:00:00 0,2 0,2 55 30 67 36 WSW
10.01.2021 22:00:00 0,5 0,5 54 29 63 34 WSW
10.01.2021 21:00:00 0,5 0,5 48 26 65 35 WSW
10.01.2021 20:00:00 0,4 0,4 57 31 70 38 W
10.01.2021 19:00:00 0,5 0,5 59 32 72 39 W
10.01.2021 18:00:00 0,0 0,0 48 26 57 31 W
10.01.2021 17:00:00 0,0 0,0 46 25 59 32 W
10.01.2021 16:00:00 0,0 0,0 48 26 59 32 W
10.01.2021 15:00:00 0,0 0,0 46 25 57 31 WSW
10.01.2021 14:00:00 0,0 0,0 - - - - -
10.01.2021 13:00:00 0,0 0,0 - - - - -
10.01.2021 12:00:00 0,0 0,0 - - - - -
10.01.2021 11:00:00 -0,1 -0,1 - - - - -
10.01.2021 10:00:00 -0,1 -0,1 - - - - -
10.01.2021 09:00:00 -0,1 -0,1 - - - - -
10.01.2021 08:00:00 -0,2 -0,2 - - - - -
10.01.2021 07:00:00 -0,2 -0,2 - - - - -
10.01.2021 06:00:00 -0,3 -0,3 - - - - -
10.01.2021 05:00:00 -0,5 -0,5 - - - - -
10.01.2021 04:00:00 -0,6 -0,6 - - - - -
10.01.2021 03:00:00 -0,7 -0,7 - - - - -
10.01.2021 02:00:00 -0,8 -0,8 - - - - -
10.01.2021 01:00:00 -1,4 -1,4 - - - - -
10.01.2021 00:00:00 -1,8 -1,8 - - - - -
09.01.2021 23:00:00 -2,1 -2,1 - - - - -
09.01.2021 22:00:00 -2,7 -2,7 - - - - -
09.01.2021 21:00:00 -3,3 -3,3 - - - - -
09.01.2021 20:00:00 -3,7 -3,7 - - - - -
09.01.2021 19:00:00 -3,8 -3,8 - - - - -
09.01.2021 18:00:00 -3,7 -3,7 - - - - -
09.01.2021 17:00:00 -3,6 -3,6 - - - - -

tt = temperature
td = dewpoint
ff = wind speed
fx = gusts
dd = wind direction

Next stations